createdAt,value
2023-05-22T00:01:37.664Z,22.10
2023-05-22T00:04:04.609Z,22.10
2023-05-22T00:06:31.596Z,22.10
2023-05-22T00:08:58.210Z,22.10
2023-05-22T00:11:24.937Z,22.00
2023-05-22T00:13:51.657Z,21.80
2023-05-22T00:16:18.305Z,21.90
2023-05-22T00:18:45.028Z,21.80
2023-05-22T00:21:11.773Z,21.90
2023-05-22T00:23:38.468Z,22.00
2023-05-22T00:26:05.251Z,21.80
2023-05-22T00:28:31.882Z,21.90
2023-05-22T00:30:58.532Z,21.90
2023-05-22T00:33:25.257Z,21.70
2023-05-22T00:35:51.915Z,21.80
2023-05-22T00:38:29.380Z,21.80
2023-05-22T00:40:56.028Z,21.90
2023-05-22T00:43:22.645Z,21.90
2023-05-22T00:45:49.264Z,21.90
2023-05-22T00:48:15.895Z,21.80
2023-05-22T00:50:42.708Z,21.80
2023-05-22T00:53:09.916Z,21.70
2023-05-22T00:55:36.776Z,21.60
2023-05-22T00:58:07.563Z,21.70
2023-05-22T01:00:36.983Z,21.60
2023-05-22T01:03:05.546Z,21.60
2023-05-22T01:05:32.235Z,21.60
2023-05-22T01:07:58.879Z,21.60
2023-05-22T01:10:25.964Z,21.50
2023-05-22T01:12:59.928Z,21.50
2023-05-22T01:15:35.341Z,21.50
2023-05-22T01:18:12.459Z,21.50
2023-05-22T01:20:43.424Z,21.50
2023-05-22T01:23:10.041Z,21.40
2023-05-22T01:25:39.642Z,21.30
2023-05-22T01:28:35.636Z,21.30
2023-05-22T01:31:04.526Z,21.30
2023-05-22T01:33:33.421Z,21.30
2023-05-22T01:36:01.091Z,21.20
2023-05-22T01:38:27.848Z,21.20
2023-05-22T01:40:55.056Z,21.10
2023-05-22T01:43:21.966Z,21.00
2023-05-22T01:45:49.121Z,21.10
2023-05-22T01:48:16.168Z,21.00
2023-05-22T01:50:42.944Z,21.00
2023-05-22T01:53:18.342Z,21.00
2023-05-22T01:55:47.695Z,21.00
2023-05-22T01:58:33.305Z,21.00
2023-05-22T02:01:03.612Z,20.90
2023-05-22T02:03:31.786Z,20.80
2023-05-22T02:06:00.036Z,20.70
2023-05-22T02:08:27.587Z,20.70
2023-05-22T02:10:55.673Z,20.80
2023-05-22T02:13:22.776Z,20.70
2023-05-22T02:15:49.876Z,20.70
2023-05-22T02:18:16.769Z,20.70
2023-05-22T02:20:43.453Z,20.70
2023-05-22T02:23:10.075Z,20.70
2023-05-22T02:25:36.937Z,20.60
2023-05-22T02:28:03.615Z,20.50
2023-05-22T02:30:30.260Z,20.60
2023-05-22T02:32:58.324Z,20.70
2023-05-22T02:35:24.984Z,20.70
2023-05-22T02:37:51.700Z,20.70
2023-05-22T02:40:18.332Z,20.70
2023-05-22T02:42:44.945Z,20.60
2023-05-22T02:45:11.651Z,20.60
2023-05-22T02:47:38.394Z,20.50
2023-05-22T02:50:05.338Z,20.50
2023-05-22T02:52:31.947Z,20.50
2023-05-22T02:54:58.617Z,20.50
2023-05-22T02:57:25.290Z,20.50
2023-05-22T02:59:52.540Z,20.40
2023-05-22T03:02:19.849Z,20.40
2023-05-22T03:04:46.641Z,20.30
2023-05-22T03:07:13.343Z,20.30
2023-05-22T03:09:40.047Z,20.30
2023-05-22T03:12:06.934Z,20.40
2023-05-22T03:14:33.570Z,20.40
2023-05-22T03:17:00.247Z,20.40
2023-05-22T03:19:27.086Z,20.30
2023-05-22T03:21:53.954Z,20.30
2023-05-22T03:24:21.018Z,20.20
2023-05-22T03:26:47.679Z,20.30
2023-05-22T03:29:14.351Z,20.20
2023-05-22T03:31:41.116Z,20.30
2023-05-22T03:34:08.381Z,20.30
2023-05-22T03:36:35.324Z,20.20
2023-05-22T03:39:02.684Z,20.20
2023-05-22T03:41:29.546Z,20.20
2023-05-22T03:43:57.283Z,20.20
2023-05-22T03:46:24.176Z,20.20
2023-05-22T03:48:50.931Z,20.30
2023-05-22T03:51:20.016Z,20.30
2023-05-22T03:53:47.021Z,20.20
2023-05-22T03:56:13.689Z,20.20
2023-05-22T03:58:40.424Z,20.00
2023-05-22T04:01:09.943Z,20.10
2023-05-22T04:03:39.809Z,20.10
2023-05-22T04:06:07.563Z,20.00
2023-05-22T04:08:34.460Z,20.00
2023-05-22T04:11:01.345Z,20.10
2023-05-22T04:13:28.124Z,20.10
2023-05-22T04:15:56.844Z,20.10
2023-05-22T04:18:23.603Z,20.10
2023-05-22T04:20:51.831Z,20.10
2023-05-22T04:23:18.476Z,20.10
2023-05-22T04:25:47.767Z,20.10
2023-05-22T04:28:17.499Z,20.10
2023-05-22T04:30:44.316Z,20.20
2023-05-22T04:33:11.023Z,20.20
2023-05-22T04:35:37.716Z,20.20
2023-05-22T04:38:06.167Z,20.20
2023-05-22T04:40:33.925Z,20.20
2023-05-22T04:43:01.484Z,20.30
2023-05-22T04:45:28.938Z,20.30
2023-05-22T04:47:56.275Z,20.20
2023-05-22T04:50:23.850Z,20.10
2023-05-22T04:52:50.638Z,20.30
2023-05-22T04:55:17.567Z,20.30
2023-05-22T04:57:45.058Z,20.30
2023-05-22T05:00:13.962Z,20.30
2023-05-22T05:02:41.195Z,20.20
2023-05-22T05:05:08.227Z,20.10
2023-05-22T05:07:38.753Z,20.10
2023-05-22T05:10:06.276Z,20.00
2023-05-22T05:12:32.922Z,20.10
2023-05-22T05:14:59.567Z,20.20
2023-05-22T05:17:26.385Z,20.20
2023-05-22T05:19:53.368Z,20.10
2023-05-22T05:22:20.042Z,19.90
2023-05-22T05:24:46.752Z,19.80
2023-05-22T05:27:13.948Z,19.90
2023-05-22T05:29:41.249Z,19.80
2023-05-22T05:32:08.268Z,19.70
2023-05-22T05:34:35.173Z,19.70
2023-05-22T05:37:02.718Z,19.90
2023-05-22T05:39:29.738Z,20.00
2023-05-22T05:41:56.520Z,20.10
2023-05-22T05:44:23.160Z,20.20
2023-05-22T05:46:49.911Z,20.30
2023-05-22T05:49:16.549Z,20.30
2023-05-22T05:51:43.242Z,20.30
2023-05-22T05:54:10.150Z,20.30
2023-05-22T05:56:37.584Z,20.20
2023-05-22T05:59:04.319Z,20.30
2023-05-22T06:01:35.137Z,20.30
2023-05-22T06:04:03.449Z,20.40
2023-05-22T06:06:30.877Z,20.30
2023-05-22T06:08:57.570Z,20.50
2023-05-22T06:11:24.195Z,20.50
2023-05-22T06:13:50.819Z,20.60
2023-05-22T06:16:17.513Z,20.60
2023-05-22T06:18:46.192Z,20.60
2023-05-22T06:21:12.832Z,20.70
2023-05-22T06:23:39.422Z,20.80
2023-05-22T06:26:06.061Z,20.70
2023-05-22T06:28:32.739Z,20.90
2023-05-22T06:30:59.487Z,20.80
2023-05-22T06:33:26.252Z,20.90
2023-05-22T06:35:52.956Z,21.00
2023-05-22T06:38:19.604Z,21.10
2023-05-22T06:40:46.257Z,21.20
2023-05-22T06:43:12.935Z,21.10
2023-05-22T06:45:39.716Z,21.20
2023-05-22T06:48:06.552Z,21.20
2023-05-22T06:50:33.252Z,21.20
2023-05-22T06:53:00.186Z,21.10
2023-05-22T06:55:26.830Z,21.10
2023-05-22T06:57:53.581Z,21.10
2023-05-22T07:00:21.978Z,21.10
2023-05-22T07:02:49.308Z,21.10
2023-05-22T07:05:16.036Z,21.10
2023-05-22T07:07:43.487Z,21.10
2023-05-22T07:10:10.360Z,21.30
2023-05-22T07:12:37.240Z,21.40
2023-05-22T07:15:04.284Z,21.40
2023-05-22T07:17:31.766Z,21.50
2023-05-22T07:19:58.461Z,21.40
2023-05-22T07:22:25.297Z,21.50
2023-05-22T07:24:51.960Z,21.60
2023-05-22T07:27:18.633Z,21.60
2023-05-22T07:29:45.617Z,21.70
2023-05-22T07:32:12.239Z,21.70
2023-05-22T07:34:38.963Z,21.80
2023-05-22T07:37:09.156Z,21.90
2023-05-22T07:39:35.873Z,22.00
2023-05-22T07:42:03.128Z,22.10
2023-05-22T07:44:29.863Z,22.30
2023-05-22T07:46:56.836Z,22.40
2023-05-22T07:49:24.111Z,22.50
2023-05-22T07:51:50.798Z,22.60
2023-05-22T07:54:18.233Z,22.70
2023-05-22T07:56:45.908Z,22.70
2023-05-22T07:59:12.658Z,22.70
2023-05-22T08:01:40.207Z,22.80
2023-05-22T08:04:07.067Z,22.80
2023-05-22T08:06:36.954Z,22.80
2023-05-22T08:09:04.884Z,22.80
2023-05-22T08:11:31.670Z,23.00
2023-05-22T08:13:58.403Z,23.40
2023-05-22T08:16:25.264Z,23.40
2023-05-22T08:18:51.974Z,23.60
2023-05-22T08:21:18.752Z,23.70
2023-05-22T08:23:45.457Z,23.80
2023-05-22T08:26:12.116Z,23.90
2023-05-22T08:28:43.924Z,23.90
2023-05-22T08:31:14.923Z,23.90
2023-05-22T08:33:41.627Z,24.00
2023-05-22T08:36:08.297Z,24.00
2023-05-22T08:38:35.084Z,24.10
2023-05-22T08:41:01.913Z,24.20
2023-05-22T08:43:29.135Z,24.30
2023-05-22T08:46:04.383Z,24.50
2023-05-22T08:48:34.418Z,24.60
2023-05-22T08:51:04.778Z,24.70
2023-05-22T08:53:36.756Z,24.90
2023-05-22T08:56:05.235Z,24.90
2023-05-22T08:58:32.562Z,24.90
2023-05-22T09:00:59.424Z,25.00
2023-05-22T09:03:32.730Z,25.10
2023-05-22T09:05:59.798Z,25.20
2023-05-22T09:08:27.151Z,25.40
2023-05-22T09:10:56.096Z,25.60
2023-05-22T09:13:30.077Z,25.70
2023-05-22T09:16:00.740Z,25.80
2023-05-22T09:18:28.708Z,26.00
2023-05-22T09:20:59.041Z,26.20
2023-05-22T09:23:28.065Z,26.30
2023-05-22T09:25:59.174Z,26.30
2023-05-22T09:28:26.221Z,26.30
2023-05-22T09:30:53.934Z,26.20
2023-05-22T09:33:22.186Z,26.20
2023-05-22T09:35:51.488Z,26.10
2023-05-22T09:38:18.098Z,26.00
2023-05-22T09:40:44.771Z,26.00
2023-05-22T09:43:11.677Z,26.30
2023-05-22T09:45:38.862Z,26.80
2023-05-22T09:48:06.517Z,27.30
2023-05-22T09:50:33.265Z,27.60
2023-05-22T09:53:04.284Z,27.80
2023-05-22T09:55:32.030Z,27.80
2023-05-22T09:58:02.649Z,27.90
2023-05-22T10:00:30.055Z,27.70
2023-05-22T10:02:56.837Z,27.70
2023-05-22T10:05:24.958Z,27.50
2023-05-22T10:07:53.180Z,27.40
2023-05-22T10:10:25.718Z,27.30
2023-05-22T10:12:53.336Z,27.50
2023-05-22T10:15:20.711Z,27.50
2023-05-22T10:17:48.065Z,27.50
2023-05-22T10:20:15.450Z,27.50
2023-05-22T10:22:42.841Z,27.60
2023-05-22T10:25:10.780Z,27.80
2023-05-22T10:27:38.174Z,27.70
2023-05-22T10:30:24.377Z,27.60
2023-05-22T10:32:57.142Z,27.70
2023-05-22T10:35:27.075Z,27.50
2023-05-22T10:37:55.080Z,27.70
2023-05-22T10:40:28.692Z,27.80
2023-05-22T10:43:01.938Z,27.90
2023-05-22T10:48:06.654Z,28.30
2023-05-22T10:50:34.141Z,28.50
2023-05-22T10:53:22.488Z,28.60
2023-05-22T10:55:50.236Z,28.60
2023-05-22T10:58:17.432Z,28.50
2023-05-22T11:00:44.561Z,28.60
2023-05-22T11:03:18.023Z,28.70
2023-05-22T11:05:52.170Z,28.70
2023-05-22T11:08:27.960Z,28.80
2023-05-22T11:10:55.814Z,28.90
2023-05-22T11:13:28.258Z,28.80
2023-05-22T11:15:56.649Z,29.10
2023-05-22T11:18:23.816Z,29.20
2023-05-22T11:20:50.935Z,29.40
2023-05-22T11:23:19.436Z,29.40
2023-05-22T11:25:46.168Z,29.40
2023-05-22T11:28:12.964Z,29.40
2023-05-22T11:30:39.778Z,29.20
2023-05-22T11:33:06.722Z,29.10
2023-05-22T11:35:33.946Z,29.20
2023-05-22T11:38:03.676Z,29.20
2023-05-22T11:40:30.434Z,29.40
2023-05-22T11:42:57.134Z,29.60
2023-05-22T11:45:23.997Z,29.70
2023-05-22T11:47:50.688Z,29.90
2023-05-22T11:50:25.950Z,29.90
2023-05-22T11:53:01.686Z,30.10
2023-05-22T11:55:28.315Z,30.20
2023-05-22T11:57:55.387Z,30.30
2023-05-22T12:00:22.239Z,30.20
2023-05-22T12:02:49.097Z,30.20
2023-05-22T12:05:16.595Z,30.30
2023-05-22T12:07:43.612Z,30.30
2023-05-22T12:10:11.132Z,30.30
2023-05-22T12:12:38.325Z,30.30
2023-05-22T12:15:06.169Z,30.40
2023-05-22T12:17:35.319Z,30.40
2023-05-22T12:20:02.039Z,30.60
2023-05-22T12:22:29.754Z,30.60
2023-05-22T12:24:56.461Z,30.70
2023-05-22T12:27:23.084Z,30.90
2023-05-22T12:29:49.775Z,30.80
2023-05-22T12:32:18.134Z,30.70
2023-05-22T12:34:46.354Z,30.40
2023-05-22T12:37:22.958Z,30.10
2023-05-22T12:39:56.613Z,30.10
2023-05-22T12:42:23.896Z,30.20
2023-05-22T12:44:52.048Z,30.10
2023-05-22T12:47:18.962Z,30.00
2023-05-22T12:49:45.715Z,30.00
2023-05-22T12:52:13.177Z,30.10
2023-05-22T12:54:40.031Z,30.20
2023-05-22T12:57:06.827Z,30.20
2023-05-22T12:59:33.896Z,30.10
2023-05-22T13:02:02.358Z,30.10
2023-05-22T13:04:29.630Z,30.00
2023-05-22T13:06:59.031Z,30.10
2023-05-22T13:09:26.049Z,30.10
2023-05-22T13:11:52.765Z,30.10
2023-05-22T13:14:19.416Z,30.20
2023-05-22T13:16:46.044Z,30.10
2023-05-22T13:19:12.776Z,29.70
2023-05-22T13:21:39.470Z,29.80
2023-05-22T13:24:06.127Z,29.90
2023-05-22T13:26:32.812Z,29.90
2023-05-22T13:28:59.462Z,30.00
2023-05-22T13:31:26.214Z,29.80
2023-05-22T13:33:52.971Z,29.80
2023-05-22T13:36:19.871Z,29.70
2023-05-22T13:38:46.635Z,29.80
2023-05-22T13:41:15.362Z,29.80
2023-05-22T13:43:42.068Z,29.70
2023-05-22T13:46:08.784Z,29.70
2023-05-22T13:48:35.485Z,29.80
2023-05-22T13:51:02.160Z,29.70
2023-05-22T13:53:28.805Z,29.80
2023-05-22T13:55:55.437Z,29.80
2023-05-22T13:58:22.087Z,29.80
2023-05-22T14:00:48.698Z,29.70
2023-05-22T14:03:17.714Z,29.70
2023-05-22T14:05:45.013Z,29.90
2023-05-22T14:08:11.755Z,29.90
2023-05-22T14:10:38.716Z,29.80
2023-05-22T14:13:05.547Z,29.90
2023-05-22T14:15:32.210Z,30.00
2023-05-22T14:17:58.945Z,30.00
2023-05-22T14:20:25.614Z,29.90
2023-05-22T14:22:57.794Z,29.90
2023-05-22T14:25:25.131Z,29.90
2023-05-22T14:27:51.760Z,29.80
2023-05-22T14:30:18.629Z,29.80
2023-05-22T14:32:46.644Z,29.80
2023-05-22T14:35:13.353Z,29.90
2023-05-22T14:37:40.183Z,29.90
2023-05-22T14:40:07.320Z,29.90
2023-05-22T14:42:34.024Z,29.90
2023-05-22T14:45:00.794Z,29.90
2023-05-22T14:47:27.442Z,30.00
2023-05-22T14:49:57.674Z,29.90
2023-05-22T14:52:29.869Z,29.90
2023-05-22T14:54:56.486Z,29.70
2023-05-22T14:57:23.206Z,29.90
2023-05-22T14:59:49.869Z,29.80
2023-05-22T15:02:16.682Z,29.90
2023-05-22T15:04:44.706Z,30.00
2023-05-22T15:07:11.603Z,29.90
2023-05-22T15:09:38.250Z,29.80
2023-05-22T15:12:05.032Z,29.40
2023-05-22T15:14:31.686Z,29.30
2023-05-22T15:16:59.434Z,29.60
2023-05-22T15:19:26.351Z,29.70
2023-05-22T15:21:54.645Z,30.10
2023-05-22T15:24:24.168Z,30.80
2023-05-22T15:26:51.473Z,31.70
2023-05-22T15:29:18.184Z,32.00
2023-05-22T15:31:44.969Z,32.20
2023-05-22T15:34:11.680Z,32.50
2023-05-22T15:36:38.345Z,32.80
2023-05-22T15:39:04.973Z,32.80
2023-05-22T15:41:31.695Z,32.00
2023-05-22T15:43:58.317Z,31.50
2023-05-22T15:46:25.001Z,31.20
2023-05-22T15:48:51.665Z,30.80
2023-05-22T15:51:18.311Z,30.40
2023-05-22T15:53:44.924Z,30.00
2023-05-22T15:56:12.001Z,29.60
2023-05-22T15:58:38.688Z,29.30
2023-05-22T16:01:05.588Z,29.40
2023-05-22T16:03:32.307Z,29.40
2023-05-22T16:05:59.026Z,29.30
2023-05-22T16:08:25.968Z,29.30
2023-05-22T16:10:52.727Z,29.40
2023-05-22T16:13:19.589Z,29.30
2023-05-22T16:15:46.266Z,29.30
2023-05-22T16:18:13.187Z,29.10
2023-05-22T16:20:40.441Z,29.00
2023-05-22T16:23:07.147Z,28.80
2023-05-22T16:25:34.017Z,28.60
2023-05-22T16:28:00.766Z,28.50
2023-05-22T16:30:27.537Z,28.40
2023-05-22T16:32:54.193Z,28.30
2023-05-22T16:35:22.097Z,28.10
2023-05-22T16:37:48.869Z,28.00
2023-05-22T16:40:15.822Z,27.90
2023-05-22T16:42:42.936Z,27.80
2023-05-22T16:45:09.592Z,27.70
2023-05-22T16:47:36.337Z,27.70
2023-05-22T16:50:03.115Z,27.80
2023-05-22T16:52:30.181Z,27.80
2023-05-22T16:54:56.796Z,27.80
2023-05-22T16:57:25.929Z,27.70
2023-05-22T16:59:52.815Z,27.50
2023-05-22T17:02:19.779Z,27.40
2023-05-22T17:04:46.774Z,27.30
2023-05-22T17:07:13.393Z,27.20
2023-05-22T17:09:40.591Z,27.10
2023-05-22T17:12:07.390Z,27.10
2023-05-22T17:14:34.397Z,27.00
2023-05-22T17:17:01.119Z,26.90
2023-05-22T17:19:27.840Z,27.00
2023-05-22T17:21:54.628Z,26.90
2023-05-22T17:24:21.270Z,27.00
2023-05-22T17:26:48.991Z,26.90
2023-05-22T17:29:15.896Z,26.80
2023-05-22T17:31:42.582Z,26.70
2023-05-22T17:34:09.286Z,26.60
2023-05-22T17:36:36.951Z,26.50
2023-05-22T17:39:03.717Z,26.40
2023-05-22T17:41:30.998Z,26.30
2023-05-22T17:44:00.670Z,26.30
2023-05-22T17:46:27.632Z,26.20
2023-05-22T17:48:55.257Z,26.20
2023-05-22T17:51:22.409Z,26.10
2023-05-22T17:53:49.278Z,26.10
2023-05-22T17:56:16.712Z,26.00
2023-05-22T17:58:43.665Z,25.90
2023-05-22T18:01:10.459Z,25.80
2023-05-22T18:03:37.255Z,25.80
2023-05-22T18:06:04.581Z,25.80
2023-05-22T18:08:31.457Z,25.80
2023-05-22T18:10:59.283Z,25.80
2023-05-22T18:13:25.945Z,25.80
2023-05-22T18:15:53.192Z,25.70
2023-05-22T18:18:20.792Z,25.60
2023-05-22T18:20:47.647Z,25.50
2023-05-22T18:23:14.353Z,25.40
2023-05-22T18:25:41.463Z,25.40
2023-05-22T18:28:08.318Z,25.40
2023-05-22T18:30:35.023Z,25.30
2023-05-22T18:33:01.943Z,25.20
2023-05-22T18:35:28.781Z,25.20
2023-05-22T18:37:55.437Z,25.20
2023-05-22T18:40:22.061Z,25.30
2023-05-22T18:42:48.710Z,25.20
2023-05-22T18:45:15.511Z,25.30
2023-05-22T18:47:42.244Z,25.20
2023-05-22T18:50:09.198Z,25.20
2023-05-22T18:52:35.932Z,25.10
2023-05-22T18:55:02.642Z,25.00
2023-05-22T18:57:29.353Z,24.90
2023-05-22T18:59:56.122Z,24.90
2023-05-22T19:02:22.876Z,24.90
2023-05-22T19:04:50.400Z,24.80
2023-05-22T19:07:17.118Z,24.70
2023-05-22T19:09:43.790Z,24.70
2023-05-22T19:12:10.415Z,24.70
2023-05-22T19:14:37.036Z,24.70
2023-05-22T19:17:03.814Z,24.40
2023-05-22T19:19:30.677Z,24.40
2023-05-22T19:21:57.373Z,24.40
2023-05-22T19:24:23.959Z,24.40
2023-05-22T19:26:50.674Z,24.40
2023-05-22T19:29:17.306Z,24.40
2023-05-22T19:31:44.062Z,24.30
2023-05-22T19:34:10.850Z,24.30
2023-05-22T19:36:37.477Z,24.20
2023-05-22T19:39:05.193Z,24.30
2023-05-22T19:41:31.963Z,24.20
2023-05-22T19:43:58.606Z,24.20
2023-05-22T19:46:25.341Z,24.20
2023-05-22T19:48:52.188Z,24.10
2023-05-22T19:51:18.828Z,24.10
2023-05-22T19:53:45.607Z,24.00
2023-05-22T19:56:12.327Z,24.00
2023-05-22T19:58:39.708Z,24.00
2023-05-22T20:01:08.813Z,24.00
2023-05-22T20:03:36.273Z,23.90
2023-05-22T20:06:03.120Z,24.00
2023-05-22T20:08:30.250Z,23.90
2023-05-22T20:10:57.014Z,23.90
2023-05-22T20:13:23.634Z,23.80
2023-05-22T20:15:53.636Z,23.90
2023-05-22T20:18:22.081Z,23.90
2023-05-22T20:20:48.801Z,23.80
2023-05-22T20:23:15.675Z,23.80
2023-05-22T20:25:42.502Z,23.80
2023-05-22T20:28:09.420Z,23.80
2023-05-22T20:30:36.192Z,23.80
2023-05-22T20:33:03.056Z,23.80
2023-05-22T20:35:30.860Z,23.60
2023-05-22T20:38:02.995Z,23.60
2023-05-22T20:40:32.170Z,23.60
2023-05-22T20:43:02.321Z,23.60
2023-05-22T20:45:30.195Z,23.60
2023-05-22T20:47:56.995Z,23.50
2023-05-22T20:50:23.702Z,23.50
2023-05-22T20:52:50.387Z,23.50
2023-05-22T20:55:17.039Z,23.50
2023-05-22T20:57:43.791Z,23.40
2023-05-22T21:00:11.148Z,23.40
2023-05-22T21:02:38.901Z,23.40
2023-05-22T21:05:05.948Z,23.40
2023-05-22T21:07:32.574Z,23.30
2023-05-22T21:09:59.328Z,23.40
2023-05-22T21:12:25.942Z,23.30
2023-05-22T21:14:52.746Z,23.40
2023-05-22T21:17:19.406Z,23.30
2023-05-22T21:19:46.221Z,23.30
2023-05-22T21:22:12.878Z,23.30
2023-05-22T21:24:39.577Z,23.30
2023-05-22T21:27:06.216Z,23.20
2023-05-22T21:29:32.867Z,23.30
2023-05-22T21:31:59.559Z,23.20
2023-05-22T21:34:26.247Z,23.10
2023-05-22T21:36:52.914Z,23.10
2023-05-22T21:39:19.541Z,23.10
2023-05-22T21:41:48.055Z,23.10
2023-05-22T21:44:16.147Z,23.10
2023-05-22T21:46:42.809Z,23.10
2023-05-22T21:49:09.726Z,23.10
2023-05-22T21:51:36.715Z,23.00
2023-05-22T21:54:03.369Z,23.00
2023-05-22T21:56:29.984Z,22.90
2023-05-22T21:58:56.642Z,22.90
2023-05-22T22:01:23.359Z,22.90
2023-05-22T22:03:50.036Z,23.00
2023-05-22T22:06:16.767Z,23.00
2023-05-22T22:08:43.392Z,23.00
2023-05-22T22:11:10.020Z,22.90
2023-05-22T22:13:36.732Z,22.90
2023-05-22T22:16:03.437Z,22.80
2023-05-22T22:18:32.273Z,22.90
2023-05-22T22:21:02.102Z,22.90
2023-05-22T22:23:29.213Z,22.80
2023-05-22T22:25:56.122Z,22.60
2023-05-22T22:28:22.796Z,22.70
2023-05-22T22:30:49.525Z,22.70
2023-05-22T22:33:16.201Z,22.70
2023-05-22T22:35:43.017Z,22.80
2023-05-22T22:38:09.613Z,22.70
2023-05-22T22:40:36.307Z,22.70
2023-05-22T22:43:03.663Z,22.70
2023-05-22T22:45:30.327Z,22.60
2023-05-22T22:47:57.217Z,22.70
2023-05-22T22:50:26.799Z,22.70
2023-05-22T22:52:53.481Z,22.70
2023-05-22T22:55:20.567Z,22.70
2023-05-22T22:57:49.857Z,22.60
2023-05-22T23:00:17.380Z,22.70
2023-05-22T23:02:44.265Z,22.70
2023-05-22T23:05:11.998Z,22.70
2023-05-22T23:07:38.834Z,22.60
2023-05-22T23:10:05.805Z,22.60
2023-05-22T23:12:35.112Z,22.50
2023-05-22T23:15:02.684Z,22.50
2023-05-22T23:17:29.464Z,22.50
2023-05-22T23:19:57.112Z,22.60
2023-05-22T23:22:23.916Z,22.50
2023-05-22T23:24:50.642Z,22.50
2023-05-22T23:27:17.273Z,22.60
2023-05-22T23:29:43.961Z,22.60
2023-05-22T23:32:12.955Z,22.50
2023-05-22T23:34:42.228Z,22.40
2023-05-22T23:37:09.226Z,22.50
2023-05-22T23:39:35.949Z,22.40
2023-05-22T23:42:03.218Z,22.40
2023-05-22T23:44:30.525Z,22.40
2023-05-22T23:46:57.402Z,22.30
2023-05-22T23:49:24.055Z,22.30
2023-05-22T23:51:50.756Z,22.30
2023-05-22T23:54:19.214Z,22.20
2023-05-22T23:56:46.049Z,22.20
2023-05-22T23:59:12.747Z,22.20
